createdAt,value
2023-02-08T00:01:00.276Z,64.65
2023-02-08T00:03:29.175Z,66.40
2023-02-08T00:05:56.871Z,62.92
2023-02-08T00:08:24.450Z,63.47
2023-02-08T00:10:51.735Z,67.30
2023-02-08T00:13:19.292Z,64.80
2023-02-08T00:15:47.160Z,59.33
2023-02-08T00:18:14.877Z,76.85
2023-02-08T00:20:43.544Z,72.95
2023-02-08T00:23:12.086Z,58.65
2023-02-08T00:25:41.233Z,73.88
2023-02-08T00:28:13.605Z,75.15
2023-02-08T00:30:43.723Z,69.45
2023-02-08T00:33:11.982Z,77.70
2023-02-08T00:35:39.330Z,69.35
2023-02-08T00:38:06.682Z,85.22
2023-02-08T00:40:33.982Z,70.88
2023-02-08T00:43:02.786Z,70.80
2023-02-08T00:45:30.445Z,69.35
2023-02-08T00:47:57.777Z,70.05
2023-02-08T00:50:25.362Z,71.25
2023-02-08T00:52:52.736Z,66.75
2023-02-08T00:55:20.291Z,91.38
2023-02-08T00:57:47.751Z,65.43
2023-02-08T01:00:15.217Z,71.72
2023-02-08T01:02:42.781Z,63.38
2023-02-08T01:05:12.096Z,68.55
2023-02-08T01:07:40.569Z,70.55
2023-02-08T01:10:12.325Z,59.05
2023-02-08T01:12:39.786Z,70.63
2023-02-08T01:15:08.055Z,79.82
2023-02-08T01:17:36.821Z,79.45
2023-02-08T01:20:04.476Z,74.32
2023-02-08T01:22:32.007Z,78.30
2023-02-08T01:25:01.587Z,75.22
2023-02-08T01:27:30.242Z,72.07
2023-02-08T01:29:57.524Z,74.60
2023-02-08T01:32:25.275Z,72.20
2023-02-08T01:34:53.005Z,67.30
2023-02-08T01:37:20.644Z,77.25
2023-02-08T01:39:48.031Z,75.95
2023-02-08T01:42:17.241Z,69.18
2023-02-08T01:45:15.775Z,75.78
2023-02-08T01:47:45.319Z,82.22
2023-02-08T01:50:14.421Z,84.75
2023-02-08T01:52:44.487Z,79.57
2023-02-08T01:55:23.651Z,82.88
2023-02-08T01:57:54.876Z,81.85
2023-02-08T02:00:23.629Z,90.78
2023-02-08T02:02:54.563Z,93.60
2023-02-08T02:05:24.881Z,105.80
2023-02-08T02:07:54.306Z,89.15
2023-02-08T02:10:25.371Z,81.18
2023-02-08T02:12:55.533Z,72.90
2023-02-08T02:15:22.955Z,81.25
2023-02-08T02:17:50.364Z,79.63
2023-02-08T02:20:37.964Z,83.15
2023-02-08T02:23:07.146Z,72.40
2023-02-08T02:25:53.210Z,87.10
2023-02-08T02:28:38.951Z,74.95
2023-02-08T02:31:15.440Z,90.85
2023-02-08T02:34:09.640Z,83.07
2023-02-08T02:36:43.731Z,68.60
2023-02-08T02:39:13.999Z,86.60
2023-02-08T02:42:14.867Z,79.47
2023-02-08T02:45:13.179Z,83.55
2023-02-08T02:47:56.096Z,83.93
2023-02-08T02:50:53.879Z,92.68
2023-02-08T02:53:41.937Z,91.15
2023-02-08T02:56:30.204Z,81.80
2023-02-08T02:59:02.702Z,84.10
2023-02-08T03:01:30.292Z,80.07
2023-02-08T03:03:58.483Z,100.55
2023-02-08T03:06:39.602Z,72.75
2023-02-08T03:09:44.624Z,89.28
2023-02-08T03:12:34.068Z,83.13
2023-02-08T03:15:34.998Z,86.32
2023-02-08T03:18:02.246Z,61.03
2023-02-08T03:20:33.067Z,64.15
2023-02-08T03:23:15.208Z,55.75
2023-02-08T03:25:54.482Z,75.28
2023-02-08T03:28:48.131Z,63.17
2023-02-08T03:31:26.915Z,59.25
2023-02-08T03:34:13.135Z,67.28
2023-02-08T03:37:00.111Z,68.97
2023-02-08T03:39:30.096Z,81.65
2023-02-08T03:42:02.832Z,70.88
2023-02-08T03:44:37.173Z,56.83
2023-02-08T03:47:14.069Z,63.97
2023-02-08T03:52:11.331Z,56.05
2023-02-08T03:54:45.660Z,65.30
2023-02-08T03:57:18.903Z,57.70
2023-02-08T03:59:52.834Z,71.65
2023-02-08T04:02:23.666Z,66.53
2023-02-08T04:04:52.076Z,58.85
2023-02-08T04:07:19.962Z,61.08
2023-02-08T04:09:47.384Z,51.63
2023-02-08T04:12:15.191Z,69.13
2023-02-08T04:14:42.452Z,66.20
2023-02-08T04:17:09.751Z,63.65
2023-02-08T04:19:37.228Z,60.92
2023-02-08T04:22:04.450Z,51.83
2023-02-08T04:24:31.852Z,67.88
2023-02-08T04:26:59.094Z,58.55
2023-02-08T04:29:27.261Z,65.57
2023-02-08T04:31:54.626Z,80.47
2023-02-08T04:34:22.161Z,68.05
2023-02-08T04:36:49.545Z,57.75
2023-02-08T04:39:16.916Z,56.03
2023-02-08T04:41:44.216Z,63.03
2023-02-08T04:44:11.563Z,66.03
2023-02-08T04:46:38.894Z,60.60
2023-02-08T04:49:06.249Z,68.07
2023-02-08T04:51:33.530Z,55.92
2023-02-08T04:54:01.010Z,69.45
2023-02-08T04:56:28.276Z,63.00
2023-02-08T04:58:55.524Z,50.42
2023-02-08T05:01:22.786Z,50.33
2023-02-08T05:03:50.186Z,60.08
2023-02-08T05:06:17.485Z,60.10
2023-02-08T05:08:44.753Z,71.57
2023-02-08T05:11:12.091Z,58.35
2023-02-08T05:13:39.595Z,77.40
2023-02-08T05:16:07.119Z,63.17
2023-02-08T05:18:34.458Z,74.18
2023-02-08T05:21:01.829Z,63.55
2023-02-08T05:23:29.321Z,66.95
2023-02-08T05:25:56.597Z,67.55
2023-02-08T05:28:23.931Z,67.18
2023-02-08T05:30:52.090Z,68.03
2023-02-08T05:33:19.465Z,60.55
2023-02-08T05:35:46.789Z,82.32
2023-02-08T05:38:14.231Z,82.57
2023-02-08T05:40:41.784Z,54.25
2023-02-08T05:43:09.188Z,60.50
2023-02-08T05:45:36.521Z,63.97
2023-02-08T05:48:03.914Z,64.43
2023-02-08T05:50:32.150Z,63.60
2023-02-08T05:52:59.461Z,64.43
2023-02-08T05:55:28.287Z,71.07
2023-02-08T05:57:55.641Z,68.05
2023-02-08T06:00:23.015Z,52.47
2023-02-08T06:02:50.424Z,63.70
2023-02-08T06:05:17.801Z,47.90
2023-02-08T06:07:45.216Z,46.33
2023-02-08T06:10:12.513Z,61.92
2023-02-08T06:12:39.931Z,55.85
2023-02-08T06:15:07.495Z,54.75
2023-02-08T06:17:34.861Z,69.35
2023-02-08T06:20:02.210Z,59.85
2023-02-08T06:22:29.663Z,62.97
2023-02-08T06:24:57.103Z,59.03
2023-02-08T06:27:24.396Z,55.83
2023-02-08T06:29:51.852Z,62.85
2023-02-08T06:32:19.329Z,55.95
2023-02-08T06:34:48.239Z,71.88
2023-02-08T06:37:15.603Z,63.15
2023-02-08T06:39:43.017Z,66.80
2023-02-08T06:42:10.953Z,56.00
2023-02-08T06:44:43.782Z,61.53
2023-02-08T06:47:18.672Z,60.80
2023-02-08T06:49:45.977Z,62.92
2023-02-08T06:52:13.288Z,62.50
2023-02-08T06:54:41.141Z,61.30
2023-02-08T06:57:08.431Z,79.20
2023-02-08T06:59:35.747Z,62.75
2023-02-08T07:02:03.097Z,63.67
2023-02-08T07:04:30.849Z,68.50
2023-02-08T07:06:58.237Z,70.63
2023-02-08T07:09:25.601Z,70.63
2023-02-08T07:11:53.018Z,70.80
2023-02-08T07:14:20.294Z,57.83
2023-02-08T07:16:47.693Z,62.05
2023-02-08T07:19:15.053Z,57.38
2023-02-08T07:21:42.392Z,58.97
2023-02-08T07:24:09.712Z,63.00
2023-02-08T07:26:37.009Z,61.83
2023-02-08T07:29:04.569Z,74.28
2023-02-08T07:31:31.961Z,73.43
2023-02-08T07:33:59.549Z,61.08
2023-02-08T07:36:26.852Z,65.65
2023-02-08T07:38:54.306Z,63.70
2023-02-08T07:41:21.721Z,73.40
2023-02-08T07:43:48.986Z,70.10
2023-02-08T07:46:19.104Z,56.88
2023-02-08T07:48:46.821Z,64.55
2023-02-08T07:51:14.096Z,66.63
2023-02-08T07:53:41.384Z,66.68
2023-02-08T07:56:10.335Z,65.25
2023-02-08T07:58:38.242Z,68.85
2023-02-08T08:01:21.007Z,69.05
2023-02-08T08:03:51.060Z,55.90
2023-02-08T08:06:22.841Z,54.80
2023-02-08T08:08:50.786Z,72.25
2023-02-08T08:11:19.585Z,65.55
2023-02-08T08:13:47.229Z,64.93
2023-02-08T08:16:14.657Z,52.55
2023-02-08T08:18:42.304Z,62.25
2023-02-08T08:21:10.082Z,60.08
2023-02-08T08:23:37.296Z,80.75
2023-02-08T08:26:13.996Z,71.63
2023-02-08T08:28:42.143Z,68.55
2023-02-08T08:31:11.781Z,60.20
2023-02-08T08:33:39.217Z,78.50
2023-02-08T08:36:07.533Z,60.10
2023-02-08T08:38:35.375Z,71.60
2023-02-08T08:41:17.991Z,71.13
2023-02-08T08:43:45.981Z,59.72
2023-02-08T08:46:13.721Z,60.83
2023-02-08T08:48:41.135Z,65.97
2023-02-08T08:51:08.566Z,67.00
2023-02-08T08:53:37.124Z,60.97
2023-02-08T08:56:05.187Z,74.90
2023-02-08T08:58:33.028Z,60.30
2023-02-08T09:01:00.779Z,67.65
2023-02-08T09:03:29.292Z,62.88
2023-02-08T09:05:57.293Z,64.80
2023-02-08T09:08:24.605Z,61.72
2023-02-08T09:10:52.067Z,59.03
2023-02-08T09:13:21.201Z,84.53
2023-02-08T09:15:49.134Z,93.38
2023-02-08T09:18:16.846Z,81.93
2023-02-08T09:20:45.073Z,91.07
2023-02-08T09:23:14.456Z,76.55
2023-02-08T09:25:41.973Z,75.53
2023-02-08T09:28:09.357Z,77.03
2023-02-08T09:30:36.631Z,76.35
2023-02-08T09:33:04.120Z,82.32
2023-02-08T09:35:31.543Z,87.30
2023-02-08T09:38:02.335Z,75.72
2023-02-08T09:40:41.814Z,78.47
2023-02-08T09:43:20.131Z,71.03
2023-02-08T09:46:05.494Z,82.03
2023-02-08T09:48:36.509Z,63.13
2023-02-08T09:51:22.545Z,63.60
2023-02-08T09:53:57.120Z,71.13
2023-02-08T09:56:29.809Z,64.28
2023-02-08T09:58:59.133Z,72.18
2023-02-08T10:01:33.625Z,90.28
2023-02-08T10:04:30.475Z,80.13
2023-02-08T10:06:58.283Z,63.25
2023-02-08T10:09:27.314Z,64.95
2023-02-08T10:12:17.583Z,68.88
2023-02-08T10:14:54.390Z,69.25
2023-02-08T10:17:30.487Z,57.95
2023-02-08T10:20:24.282Z,91.40
2023-02-08T10:23:11.855Z,82.78
2023-02-08T10:26:06.035Z,77.35
2023-02-08T10:28:52.651Z,89.95
2023-02-08T10:31:50.296Z,70.68
2023-02-08T10:34:44.996Z,63.13
2023-02-08T10:37:19.078Z,72.90
2023-02-08T10:39:47.908Z,64.43
2023-02-08T10:42:22.367Z,76.38
2023-02-08T10:45:24.863Z,70.55
2023-02-08T10:48:11.470Z,76.30
2023-02-08T10:50:47.386Z,74.47
2023-02-08T10:53:16.861Z,81.70
2023-02-08T10:55:46.746Z,79.53
2023-02-08T10:58:18.145Z,65.22
2023-02-08T11:00:46.915Z,69.63
2023-02-08T11:03:34.124Z,72.13
2023-02-08T11:06:03.160Z,83.07
2023-02-08T11:08:30.547Z,77.15
2023-02-08T11:11:00.300Z,62.60
2023-02-08T11:13:43.153Z,75.05
2023-02-08T11:16:22.340Z,77.90
2023-02-08T11:18:56.848Z,77.82
2023-02-08T11:21:33.627Z,74.95
2023-02-08T11:24:21.166Z,76.72
2023-02-08T11:29:19.972Z,71.00
2023-02-08T11:32:02.460Z,78.72
2023-02-08T11:34:32.608Z,63.33
2023-02-08T11:37:04.252Z,82.50
2023-02-08T11:39:43.068Z,69.55
2023-02-08T11:42:23.552Z,73.22
2023-02-08T11:44:51.719Z,59.03
2023-02-08T11:47:29.605Z,68.63
2023-02-08T11:50:06.112Z,65.22
2023-02-08T11:52:37.086Z,59.53
2023-02-08T11:55:19.857Z,57.75
2023-02-08T11:58:09.559Z,60.38
2023-02-08T12:01:17.886Z,62.50
2023-02-08T12:03:48.240Z,61.33
2023-02-08T12:06:43.683Z,55.88
2023-02-08T12:09:55.236Z,51.65
2023-02-08T12:12:53.083Z,60.15
2023-02-08T12:18:15.940Z,53.22
2023-02-08T12:20:47.940Z,56.45
2023-02-08T12:23:34.194Z,54.63
2023-02-08T12:26:25.745Z,57.10
2023-02-08T12:29:15.087Z,51.53
2023-02-08T12:31:49.887Z,56.25
2023-02-08T12:34:35.948Z,44.15
2023-02-08T12:37:42.138Z,37.95
2023-02-08T12:40:31.094Z,34.65
2023-02-08T12:43:27.768Z,41.88
2023-02-08T12:46:42.946Z,30.20
2023-02-08T12:49:44.036Z,33.50
2023-02-08T12:52:14.468Z,37.72
2023-02-08T12:55:03.153Z,33.20
2023-02-08T12:57:32.609Z,30.50
2023-02-08T13:00:07.398Z,36.65
2023-02-08T13:02:57.348Z,33.38
2023-02-08T13:05:33.916Z,33.90
2023-02-08T13:08:15.850Z,32.85
2023-02-08T13:10:47.184Z,23.83
2023-02-08T13:13:26.809Z,26.15
2023-02-08T13:16:00.632Z,37.03
2023-02-08T13:18:35.754Z,30.77
2023-02-08T13:21:08.379Z,33.58
2023-02-08T13:23:51.785Z,37.40
2023-02-08T13:26:27.971Z,35.45
2023-02-08T13:28:58.388Z,34.00
2023-02-08T13:31:39.394Z,42.17
2023-02-08T13:34:18.438Z,38.60
2023-02-08T13:37:00.581Z,34.70
2023-02-08T13:39:41.616Z,34.45
2023-02-08T13:42:39.711Z,33.20
2023-02-08T13:45:10.035Z,34.30
2023-02-08T13:47:45.784Z,28.42
2023-02-08T13:50:37.621Z,35.53
2023-02-08T13:53:06.490Z,28.60
2023-02-08T13:55:54.476Z,30.55
2023-02-08T13:58:22.080Z,27.33
2023-02-08T14:00:56.619Z,29.65
2023-02-08T14:03:27.365Z,35.47
2023-02-08T14:06:25.655Z,37.40
2023-02-08T14:09:19.322Z,37.25
2023-02-08T14:11:52.148Z,35.83
2023-02-08T14:14:26.812Z,35.60
2023-02-08T14:17:20.592Z,38.70
2023-02-08T14:20:06.178Z,38.63
2023-02-08T14:22:41.765Z,47.08
2023-02-08T14:25:22.551Z,42.10
2023-02-08T14:27:53.844Z,48.13
2023-02-08T14:30:31.854Z,46.70
2023-02-08T14:33:04.916Z,52.72
2023-02-08T14:35:34.284Z,40.75
2023-02-08T14:38:19.053Z,41.22
2023-02-08T14:40:59.579Z,39.88
2023-02-08T14:43:44.167Z,37.90
2023-02-08T14:46:40.494Z,49.58
2023-02-08T14:49:13.901Z,40.25
2023-02-08T14:51:53.996Z,39.95
2023-02-08T14:54:37.081Z,38.42
2023-02-08T14:57:13.864Z,30.88
2023-02-08T14:59:45.748Z,34.08
2023-02-08T15:02:24.409Z,34.42
2023-02-08T15:04:52.454Z,37.63
2023-02-08T15:07:53.855Z,37.05
2023-02-08T15:10:23.634Z,36.75
2023-02-08T15:12:54.083Z,37.80
2023-02-08T15:15:32.721Z,25.88
2023-02-08T15:18:02.050Z,33.00
2023-02-08T15:20:31.916Z,22.88
2023-02-08T15:22:59.320Z,28.52
2023-02-08T15:25:30.199Z,23.42
2023-02-08T15:28:03.558Z,20.48
2023-02-08T15:30:38.914Z,23.08
2023-02-08T15:33:18.014Z,19.27
2023-02-08T15:35:54.238Z,22.67
2023-02-08T15:38:23.338Z,23.13
2023-02-08T15:41:09.256Z,25.25
2023-02-08T15:43:38.980Z,25.80
2023-02-08T15:46:17.811Z,31.92
2023-02-08T15:48:46.880Z,26.75
2023-02-08T15:51:16.370Z,31.35
2023-02-08T15:53:46.392Z,29.60
2023-02-08T15:56:47.315Z,29.73
2023-02-08T15:59:22.484Z,35.92
2023-02-08T16:01:51.374Z,30.08
2023-02-08T16:04:19.014Z,31.13
2023-02-08T16:06:53.319Z,34.75
2023-02-08T16:12:40.271Z,32.30
2023-02-08T16:15:41.950Z,40.05
2023-02-08T16:18:34.183Z,34.25
2023-02-08T16:21:13.860Z,33.67
2023-02-08T16:24:00.387Z,32.22
2023-02-08T16:26:43.910Z,31.45
2023-02-08T16:29:37.735Z,44.53
2023-02-08T16:32:20.747Z,37.35
2023-02-08T16:34:48.561Z,38.20
2023-02-08T16:37:33.213Z,34.70
2023-02-08T16:40:22.400Z,35.20
2023-02-08T16:42:49.988Z,44.10
2023-02-08T16:45:19.968Z,35.70
2023-02-08T16:47:56.883Z,43.13
2023-02-08T16:50:28.150Z,44.42
2023-02-08T16:53:00.792Z,42.40
2023-02-08T16:55:31.553Z,41.38
2023-02-08T16:57:59.718Z,46.50
2023-02-08T17:00:31.355Z,46.83
2023-02-08T17:02:59.548Z,42.88
2023-02-08T17:05:30.197Z,47.95
2023-02-08T17:07:58.810Z,44.65
2023-02-08T17:10:31.522Z,53.42
2023-02-08T17:13:17.447Z,51.90
2023-02-08T17:15:48.765Z,44.90
2023-02-08T17:18:16.338Z,43.55
2023-02-08T17:20:44.399Z,42.05
2023-02-08T17:23:12.862Z,56.22
2023-02-08T17:25:42.093Z,44.25
2023-02-08T17:28:17.139Z,51.42
2023-02-08T17:30:44.963Z,42.85
2023-02-08T17:33:18.309Z,49.40
2023-02-08T17:35:48.588Z,48.40
2023-02-08T17:38:16.268Z,42.45
2023-02-08T17:40:44.484Z,53.67
2023-02-08T17:43:12.965Z,43.80
2023-02-08T17:45:42.410Z,58.35
2023-02-08T17:48:10.214Z,43.08
2023-02-08T17:50:37.525Z,49.33
2023-02-08T17:53:04.778Z,40.92
2023-02-08T17:55:32.574Z,42.70
2023-02-08T17:57:59.720Z,42.67
2023-02-08T18:00:27.066Z,57.13
2023-02-08T18:02:55.738Z,54.95
2023-02-08T18:05:26.502Z,42.13
2023-02-08T18:07:55.939Z,56.33
2023-02-08T18:10:24.167Z,48.42
2023-02-08T18:12:51.634Z,48.42
2023-02-08T18:15:21.334Z,41.15
2023-02-08T18:17:50.385Z,59.00
2023-02-08T18:20:18.301Z,50.53
2023-02-08T18:22:46.189Z,46.47
2023-02-08T18:25:14.364Z,46.95
2023-02-08T18:27:41.885Z,53.10
2023-02-08T18:30:10.526Z,57.05
2023-02-08T18:32:38.275Z,43.53
2023-02-08T18:35:07.385Z,46.28
2023-02-08T18:37:36.214Z,49.65
2023-02-08T18:40:05.996Z,40.25
2023-02-08T18:42:35.868Z,41.95
2023-02-08T18:45:05.111Z,51.33
2023-02-08T18:47:32.758Z,38.90
2023-02-08T18:50:00.043Z,41.17
2023-02-08T18:52:28.489Z,45.55
2023-02-08T18:54:56.091Z,47.65
2023-02-08T18:57:23.359Z,37.22
2023-02-08T18:59:50.784Z,49.97
2023-02-08T19:02:21.196Z,36.60
2023-02-08T19:04:49.166Z,44.95
2023-02-08T19:07:16.651Z,51.25
2023-02-08T19:09:44.077Z,38.28
2023-02-08T19:12:15.429Z,39.20
2023-02-08T19:14:43.942Z,46.58
2023-02-08T19:17:13.676Z,41.38
2023-02-08T19:19:42.309Z,52.88
2023-02-08T19:22:09.768Z,52.60
2023-02-08T19:24:37.073Z,59.47
2023-02-08T19:27:04.967Z,44.38
2023-02-08T19:29:34.557Z,43.20
2023-02-08T19:32:01.766Z,50.78
2023-02-08T19:34:29.350Z,39.17
2023-02-08T19:36:56.741Z,48.00
2023-02-08T19:39:26.551Z,44.92
2023-02-08T19:41:54.940Z,48.13
2023-02-08T19:44:22.821Z,43.45
2023-02-08T19:46:52.845Z,53.58
2023-02-08T19:49:21.043Z,41.33
2023-02-08T19:51:48.560Z,47.15
2023-02-08T19:54:18.148Z,41.35
2023-02-08T19:56:46.489Z,49.80
2023-02-08T19:59:25.968Z,48.80
2023-02-08T20:01:54.342Z,46.63
2023-02-08T20:04:22.631Z,52.15
2023-02-08T20:06:54.982Z,50.63
2023-02-08T20:09:22.687Z,48.97
2023-02-08T20:11:57.225Z,50.40
2023-02-08T20:14:28.784Z,45.67
2023-02-08T20:16:56.702Z,50.70
2023-02-08T20:19:24.612Z,45.50
2023-02-08T20:21:52.505Z,43.58
2023-02-08T20:24:20.325Z,42.15
2023-02-08T20:26:48.664Z,51.25
2023-02-08T20:29:17.238Z,42.97
2023-02-08T20:31:48.639Z,50.45
2023-02-08T20:34:18.693Z,51.63
2023-02-08T20:37:04.548Z,49.90
2023-02-08T20:39:34.199Z,50.83
2023-02-08T20:42:01.575Z,48.05
2023-02-08T20:44:29.019Z,56.72
2023-02-08T20:46:56.332Z,51.30
2023-02-08T20:49:25.589Z,52.95
2023-02-08T20:51:54.179Z,53.90
2023-02-08T20:54:24.470Z,54.00
2023-02-08T20:56:53.078Z,48.40
2023-02-08T20:59:21.105Z,50.30
2023-02-08T21:01:48.957Z,48.47
2023-02-08T21:04:17.945Z,56.75
2023-02-08T21:06:46.253Z,50.00
2023-02-08T21:09:16.004Z,56.42
2023-02-08T21:11:44.611Z,64.18
2023-02-08T21:14:19.355Z,59.60
2023-02-08T21:16:49.679Z,67.43
2023-02-08T21:19:17.509Z,59.25
2023-02-08T21:21:44.887Z,54.55
2023-02-08T21:24:12.270Z,49.42
2023-02-08T21:26:39.599Z,61.08
2023-02-08T21:29:07.339Z,67.50
2023-02-08T21:31:36.505Z,62.53
2023-02-08T21:34:04.899Z,59.95
2023-02-08T21:36:33.249Z,55.78
2023-02-08T21:39:00.752Z,66.57
2023-02-08T21:41:30.400Z,65.25
2023-02-08T21:44:00.243Z,60.83
2023-02-08T21:46:28.437Z,54.90
2023-02-08T21:49:15.337Z,59.47
2023-02-08T21:52:02.660Z,63.33
2023-02-08T21:54:42.470Z,53.92
2023-02-08T21:57:09.703Z,55.10
2023-02-08T21:59:37.775Z,49.35
2023-02-08T22:02:27.761Z,61.75
2023-02-08T22:05:16.223Z,52.47
2023-02-08T22:07:49.674Z,70.80
2023-02-08T22:10:19.728Z,55.30
2023-02-08T22:12:47.646Z,60.08
2023-02-08T22:15:17.840Z,60.42
2023-02-08T22:17:45.613Z,54.95
2023-02-08T22:20:14.892Z,58.97
2023-02-08T22:22:42.329Z,53.92
2023-02-08T22:25:09.713Z,55.72
2023-02-08T22:27:39.100Z,57.42
2023-02-08T22:30:08.231Z,46.83
2023-02-08T22:32:38.869Z,59.38
2023-02-08T22:35:07.625Z,57.90
2023-02-08T22:37:35.613Z,52.20
2023-02-08T22:40:04.065Z,59.00
2023-02-08T22:42:31.744Z,64.32
2023-02-08T22:44:59.497Z,50.65
2023-02-08T22:47:26.874Z,53.55
2023-02-08T22:49:57.509Z,61.80
2023-02-08T22:52:25.926Z,59.00
2023-02-08T22:54:53.851Z,50.75
2023-02-08T22:57:21.150Z,61.00
2023-02-08T22:59:48.479Z,52.88
2023-02-08T23:02:17.865Z,56.83
2023-02-08T23:04:45.209Z,51.47
2023-02-08T23:07:12.490Z,56.17
2023-02-08T23:09:39.781Z,56.22
2023-02-08T23:12:07.272Z,59.28
2023-02-08T23:14:35.535Z,61.85
2023-02-08T23:17:02.818Z,63.40
2023-02-08T23:19:30.227Z,63.03
2023-02-08T23:22:00.635Z,53.67
2023-02-08T23:24:28.046Z,50.53
2023-02-08T23:26:55.378Z,59.28
2023-02-08T23:29:22.868Z,56.63
2023-02-08T23:31:50.283Z,59.60
2023-02-08T23:34:18.090Z,63.60
2023-02-08T23:36:45.546Z,47.70
2023-02-08T23:39:13.294Z,54.65
2023-02-08T23:41:40.516Z,51.85
2023-02-08T23:44:07.806Z,59.65
2023-02-08T23:46:35.134Z,59.90
2023-02-08T23:49:02.425Z,57.30
2023-02-08T23:51:29.929Z,60.40
2023-02-08T23:53:57.232Z,58.05
2023-02-08T23:56:26.897Z,58.03
2023-02-08T23:58:57.302Z,57.97
